Lapine, Louisiana
Current Conditions -  °F | °C
As of 7:53 AM on Sunday 25 Jan 2015 (Local Time) from KMLU Reporting Station
Clear Clear  
Wind Chill: 35°   Ceiling: Unl
Heat Index: 39°   Visibility: 10mi
Dew Point: 36°   Wind: 6mph
Humidity: 89%   Direction: 220°SW
Pressure: 29.92"   Gusts: NA
Location:  32.3932°N, 92.2204°W
Report Text: KMLU 251353Z 22005KT 10SM CLR 04/02 A2992 RMK AO2 SLP132 T00390022 $
Loading
Personal Weather Stations






























Interactive Weather Map New forecast layout! Learn more

10-Day Weather Forecast

Advertisements
Track Severe Weather on mobile